Time;durP1;ratioP1;P1;durP2;ratioP2;P2;SDS_P1;SDS_P2;PMS_P1;PMS_P2;Temp;Humidity;BMP_temperature;BMP_pressure;BME280_temperature;BME280_humidity;BME280_pressure;Samples;Min_cycle;Max_cycle;Signal;HPM_P1;HPM_P2
2023/03/22 00:01:24;;;;;;;56.25;30.55;;;;;;;;;;4813788;29;20054;-80
2023/03/22 00:04:09;;;;;;;52.72;28.13;;;;;;;;;;4813549;29;20062;-78
2023/03/22 00:06:55;;;;;;;57.15;29.95;;;;;;;;;;4800014;29;20043;-78
2023/03/22 00:09:40;;;;;;;52.58;29.40;;;;;;;;;;4831148;29;20042;-79
2023/03/22 00:12:24;;;;;;;;;;;;;;;;;;4831771;29;20046;-79
2023/03/22 00:15:10;;;;;;;68.38;31.88;;;;;;;;;;4815812;29;20374;-80
2023/03/22 00:17:56;;;;;;;103.03;40.33;;;;;;;;;;4832140;29;20055;-81
2023/03/22 00:20:54;;;;;;;94.22;40.15;;;;;;;;;;4815225;29;20062;-81
2023/03/22 00:23:39;;;;;;;97.80;41.25;;;;;;;;;;4801733;29;20063;-79
2023/03/22 00:26:25;;;;;;;94.57;40.35;;;;;;;;;;4815109;29;20512;-81
2023/03/22 00:29:10;;;;;;;84.82;38.05;;;;;;;;;;4815193;29;20050;-80
2023/03/22 00:31:56;;;;;;;74.47;34.75;;;;;;;;;;4814783;29;20050;-78
2023/03/22 00:34:41;;;;;;;67.07;32.42;;;;;;;;;;4832292;29;20041;-79
2023/03/22 00:37:33;;;;;;;63.78;30.73;;;;;;;;;;4815283;29;20054;-79
2023/03/22 00:40:18;;;;;;;70.40;32.72;;;;;;;;;;4818588;29;20050;-81
2023/03/22 00:43:03;;;;;;;78.18;36.58;;;;;;;;;;4832125;29;20050;-81
2023/03/22 00:45:49;;;;;;;83.85;34.92;;;;;;;;;;4823458;29;20404;-78
2023/03/22 00:48:34;;;;;;;60.90;29.60;;;;;;;;;;4812509;29;20042;-80
2023/03/22 00:51:20;;;;;;;66.18;30.95;;;;;;;;;;4832856;29;20042;-80
2023/03/22 00:54:05;;;;;;;65.22;32.05;;;;;;;;;;4813025;29;20054;-80
2023/03/22 00:56:51;;;;;;;64.65;32.67;;;;;;;;;;4832961;29;20046;-81
2023/03/22 00:59:37;;;;;;;62.30;32.33;;;;;;;;;;4811311;29;20050;-80
2023/03/22 01:02:28;;;;;;;68.57;34.08;;;;;;;;;;4813078;29;20047;-80
2023/03/22 01:05:14;;;;;;;71.15;34.70;;;;;;;;;;4818317;29;20050;-80
2023/03/22 01:08:07;;;;;;;58.22;30.75;;;;;;;;;;4811971;29;20400;-80
2023/03/22 01:10:52;;;;;;;63.60;33.83;;;;;;;;;;4811911;29;20403;-81
2023/03/22 01:13:40;;;;;;;57.15;31.48;;;;;;;;;;4831789;29;20054;-81
2023/03/22 01:16:25;;;;;;;48.60;27.10;;;;;;;;;;4806101;29;20053;-82
2023/03/22 01:19:10;;;;;;;43.70;26.25;;;;;;;;;;4811908;29;20058;-81
2023/03/22 01:21:56;;;;;;;47.38;26.67;;;;;;;;;;4812307;29;20057;-83
2023/03/22 01:24:41;;;;;;;42.38;25.75;;;;;;;;;;4824359;29;20042;-81
2023/03/22 01:27:26;;;;;;;50.97;25.98;;;;;;;;;;4811651;29;20038;-81
2023/03/22 01:30:12;;;;;;;43.58;25.55;;;;;;;;;;4811962;29;20074;-80
2023/03/22 01:32:57;;;;;;;46.75;26.17;;;;;;;;;;4811614;29;20489;-82
2023/03/22 01:35:43;;;;;;;50.72;27.92;;;;;;;;;;4823956;29;20049;-80
2023/03/22 01:38:29;;;;;;;53.78;30.65;;;;;;;;;;4812401;29;20090;-81
2023/03/22 01:41:17;;;;;;;56.65;30.05;;;;;;;;;;4824086;29;20444;-81
2023/03/22 01:44:15;;;;;;;45.50;28.38;;;;;;;;;;4811109;29;20041;-81
2023/03/22 01:47:01;;;;;;;50.85;28.40;;;;;;;;;;4812668;29;20055;-80
2023/03/22 01:49:47;;;;;;;61.58;31.98;;;;;;;;;;4822669;29;20042;-80
2023/03/22 01:52:33;;;;;;;47.08;29.27;;;;;;;;;;4830650;29;20050;-81
2023/03/22 01:55:24;;;;;;;40.20;24.02;;;;;;;;;;4823823;29;20066;-80
2023/03/22 01:58:30;;;;;;;43.60;23.33;;;;;;;;;;4830785;29;20419;-80
2023/03/22 02:01:20;;;;;;;32.92;20.98;;;;;;;;;;4806392;29;20408;-81
2023/03/22 02:04:11;;;;;;;34.60;21.23;;;;;;;;;;4805808;29;20058;-79
2023/03/22 02:06:57;;;;;;;38.90;21.60;;;;;;;;;;4805994;29;20493;-80
2023/03/22 02:09:46;;;;;;;36.28;21.48;;;;;;;;;;4821964;29;20408;-81
2023/03/22 02:12:42;;;;;;;34.35;20.35;;;;;;;;;;4811454;29;20046;-80
2023/03/22 02:16:03;;;;;;;39.50;21.33;;;;;;;;;;4803866;29;20043;-81
2023/03/22 02:19:19;;;;;;;33.00;19.50;;;;;;;;;;4804085;29;20046;-80
2023/03/22 02:22:27;;;;;;;31.13;19.60;;;;;;;;;;4804160;29;20055;-80
2023/03/22 02:25:39;;;;;;;34.38;19.30;;;;;;;;;;4829723;29;20054;-80
2023/03/22 02:28:36;;;;;;;48.70;24.70;;;;;;;;;;4787101;29;20137;-80
2023/03/22 02:31:37;;;;;;;48.30;26.92;;;;;;;;;;4822200;29;20055;-80
2023/03/22 02:34:41;;;;;;;45.17;27.23;;;;;;;;;;4821263;29;20058;-79
2023/03/22 02:37:42;;;;;;;56.73;27.70;;;;;;;;;;4804585;29;20047;-81
2023/03/22 02:40:39;;;;;;;49.72;26.33;;;;;;;;;;4828064;29;20042;-80
2023/03/22 02:43:33;;;;;;;42.85;24.50;;;;;;;;;;4828078;29;20047;-80
2023/03/22 02:46:54;;;;;;;37.22;19.73;;;;;;;;;;4804966;29;20053;-80
2023/03/22 02:49:48;;;;;;;28.95;18.30;;;;;;;;;;4819226;29;20043;-80
2023/03/22 02:52:43;;;;;;;30.90;16.38;;;;;;;;;;4799266;29;20050;-80
2023/03/22 02:55:55;;;;;;;26.65;16.63;;;;;;;;;;4829624;29;20049;-80
2023/03/22 02:58:50;;;;;;;27.20;15.73;;;;;;;;;;4806633;29;20054;-80
2023/03/22 03:01:43;;;;;;;24.73;15.80;;;;;;;;;;4829870;29;20116;-81
2023/03/22 03:04:37;;;;;;;25.88;15.13;;;;;;;;;;4805128;29;20042;-81
2023/03/22 03:07:26;;;;;;;26.73;15.25;;;;;;;;;;4829489;29;20042;-80
2023/03/22 03:10:16;;;;;;;24.98;14.98;;;;;;;;;;4822062;29;20049;-79
2023/03/22 03:13:01;;;;;;;30.98;16.73;;;;;;;;;;4821448;29;20042;-80
2023/03/22 03:15:51;;;;;;;33.53;18.27;;;;;;;;;;4805311;29;20054;-80
2023/03/22 03:18:49;;;;;;;34.78;18.75;;;;;;;;;;4805556;29;20050;-80
2023/03/22 03:21:56;;;;;;;30.67;17.67;;;;;;;;;;4820934;29;20065;-80
2023/03/22 03:24:50;;;;;;;32.17;17.13;;;;;;;;;;4805049;29;20488;-81
2023/03/22 03:27:43;;;;;;;;;;;;;;;;;;4829969;29;20041;-81
2023/03/22 03:30:37;;;;;;;21.25;11.98;;;;;;;;;;4804543;29;19921;-81
2023/03/22 03:33:24;;;;;;;;;;;;;;;;;;4828615;29;20054;-82
2023/03/22 03:36:14;;;;;;;22.95;11.40;;;;;;;;;;4804968;29;19917;-80
2023/03/22 03:39:03;;;;;;;20.88;10.90;;;;;;;;;;4804505;29;20051;-80
2023/03/22 03:41:50;;;;;;;17.35;9.20;;;;;;;;;;4820969;29;20053;-82
2023/03/22 03:44:37;;;;;;;18.13;9.07;;;;;;;;;;4804898;29;20412;-79
2023/03/22 03:47:24;;;;;;;19.90;10.93;;;;;;;;;;4800928;29;20481;-80
2023/03/22 03:50:11;;;;;;;30.45;17.83;;;;;;;;;;4804905;29;20476;-82
2023/03/22 03:52:57;;;;;;;26.83;16.02;;;;;;;;;;4804536;29;20058;-80
2023/03/22 03:55:42;;;;;;;27.65;15.98;;;;;;;;;;4810668;29;20055;-81
2023/03/22 03:58:29;;;;;;;28.98;16.65;;;;;;;;;;4804927;29;20042;-80
2023/03/22 04:01:14;;;;;;;26.48;14.85;;;;;;;;;;4804554;29;20054;-80
2023/03/22 04:04:34;;;;;;;20.92;12.27;;;;;;;;;;4810126;29;20047;-81
2023/03/22 04:07:20;;;;;;;20.33;10.50;;;;;;;;;;4804243;29;20063;-81
2023/03/22 04:10:07;;;;;;;15.18;8.40;;;;;;;;;;4797394;29;20047;-81
2023/03/22 04:12:52;;;;;;;9.93;6.72;;;;;;;;;;4798214;29;20055;-82
2023/03/22 04:15:38;;;;;;;16.75;7.50;;;;;;;;;;4804733;29;20046;-81
2023/03/22 04:18:28;;;;;;;17.60;8.63;;;;;;;;;;4804763;29;20050;-81
2023/03/22 04:21:15;;;;;;;19.13;10.95;;;;;;;;;;4804083;29;20046;-80
2023/03/22 04:24:11;;;;;;;21.13;10.15;;;;;;;;;;4804136;29;20047;-81
2023/03/22 04:26:59;;;;;;;21.98;9.63;;;;;;;;;;4810085;29;20421;-82
2023/03/22 04:29:59;;;;;;;16.60;8.82;;;;;;;;;;4811889;29;20050;-78
2023/03/22 04:33:21;;;;;;;16.20;9.52;;;;;;;;;;4722854;30;20447;-79
2023/03/22 04:36:29;;;;;;;18.10;9.95;;;;;;;;;;4821154;29;20411;-79
2023/03/22 04:39:31;;;;;;;16.67;9.60;;;;;;;;;;4807011;29;20054;-79
2023/03/22 04:42:34;;;;;;;21.17;11.63;;;;;;;;;;4807558;29;20412;-79
2023/03/22 04:45:45;;;;;;;22.05;11.07;;;;;;;;;;4807369;29;20054;-79
2023/03/22 04:48:34;;;;;;;19.40;11.48;;;;;;;;;;4806997;29;20042;-79
2023/03/22 04:51:20;;;;;;;25.60;12.32;;;;;;;;;;4806498;29;20433;-80
2023/03/22 04:54:22;;;;;;;27.92;12.70;;;;;;;;;;4807006;29;20046;-81
2023/03/22 04:57:08;;;;;;;25.58;13.40;;;;;;;;;;4819373;29;20050;-81
2023/03/22 05:00:00;;;;;;;25.75;12.68;;;;;;;;;;4805878;29;20059;-80
2023/03/22 05:02:46;;;;;;;22.83;13.40;;;;;;;;;;4806640;29;20051;-80
2023/03/22 05:05:49;;;;;;;81.68;33.53;;;;;;;;;;4818797;29;20058;-82
2023/03/22 05:08:35;;;;;;;53.40;24.97;;;;;;;;;;4806946;29;20054;-80
2023/03/22 05:11:23;;;;;;;57.72;25.23;;;;;;;;;;4806656;29;20043;-81
2023/03/22 05:14:22;;;;;;;59.53;23.02;;;;;;;;;;4807104;29;20054;-81
2023/03/22 05:17:08;;;;;;;31.20;16.10;;;;;;;;;;4806550;29;20050;-81
2023/03/22 05:19:56;;;;;;;29.50;15.98;;;;;;;;;;4807052;29;20051;-81
2023/03/22 05:22:44;;;;;;;32.58;17.27;;;;;;;;;;4806179;29;20058;-82
2023/03/22 05:25:30;;;;;;;29.85;16.77;;;;;;;;;;4819086;29;20051;-80
2023/03/22 05:28:18;;;;;;;27.48;16.88;;;;;;;;;;4806201;29;20485;-80
2023/03/22 05:31:14;;;;;;;26.35;12.65;;;;;;;;;;4805684;29;20055;-82
2023/03/22 05:34:12;;;;;;;48.85;15.40;;;;;;;;;;4805128;29;20046;-80
2023/03/22 05:37:01;;;;;;;26.00;16.15;;;;;;;;;;4806227;29;20050;-80
2023/03/22 05:40:01;;;;;;;27.70;17.10;;;;;;;;;;4804820;29;20058;-80
2023/03/22 05:42:55;;;;;;;34.50;14.75;;;;;;;;;;4818680;29;20050;-81
2023/03/22 05:45:44;;;;;;;27.02;13.45;;;;;;;;;;4804426;29;20445;-80
2023/03/22 05:48:53;;;;;;;24.17;12.18;;;;;;;;;;4824446;29;20042;-78
2023/03/22 05:51:41;;;;;;;19.70;11.48;;;;;;;;;;4822203;29;20054;-82
2023/03/22 05:54:27;;;;;;;18.13;11.25;;;;;;;;;;4810863;29;20045;-79
2023/03/22 05:57:12;;;;;;;16.67;9.50;;;;;;;;;;4822622;29;20058;-81
2023/03/22 05:59:57;;;;;;;17.05;9.65;;;;;;;;;;4828729;29;20050;-79
2023/03/22 06:02:48;;;;;;;15.27;10.25;;;;;;;;;;4830574;29;20050;-81
2023/03/22 06:05:36;;;;;;;15.30;9.68;;;;;;;;;;4824030;29;20495;-79
2023/03/22 06:08:22;;;;;;;15.25;9.50;;;;;;;;;;4830833;29;20055;-80
2023/03/22 06:11:07;;;;;;;15.32;9.98;;;;;;;;;;4831696;29;20412;-80
2023/03/22 06:13:53;;;;;;;20.35;13.60;;;;;;;;;;4824562;29;20059;-80
2023/03/22 06:16:46;;;;;;;14.85;9.05;;;;;;;;;;4823517;29;20062;-78
2023/03/22 06:19:32;;;;;;;18.55;9.63;;;;;;;;;;4809980;29;20053;-79
2023/03/22 06:22:20;;;;;;;22.45;10.30;;;;;;;;;;4821982;29;20054;-76
2023/03/22 06:25:07;;;;;;;17.77;10.50;;;;;;;;;;4822419;29;20042;-76
2023/03/22 06:27:59;;;;;;;17.15;9.98;;;;;;;;;;4823396;29;20054;-78
2023/03/22 06:30:45;;;;;;;17.75;9.85;;;;;;;;;;4822247;29;20042;-77
2023/03/22 06:33:44;;;;;;;19.60;11.43;;;;;;;;;;4822525;29;20046;-77
2023/03/22 06:36:45;;;;;;;19.45;10.57;;;;;;;;;;4823287;29;20045;-78
2023/03/22 06:39:34;;;;;;;14.65;7.63;;;;;;;;;;4822405;29;20058;-78
2023/03/22 06:42:20;;;;;;;14.27;9.07;;;;;;;;;;4823451;29;20049;-77
2023/03/22 06:45:15;;;;;;;13.93;7.95;;;;;;;;;;4823452;29;20041;-77
2023/03/22 06:48:02;;;;;;;10.60;6.93;;;;;;;;;;4801072;29;20050;-79
2023/03/22 06:51:00;;;;;;;9.43;6.50;;;;;;;;;;4804649;29;20042;-78
2023/03/22 06:53:50;;;;;;;9.98;6.40;;;;;;;;;;4804476;29;20051;-77
2023/03/22 06:56:36;;;;;;;12.82;6.38;;;;;;;;;;4826962;29;20050;-78
2023/03/22 06:59:22;;;;;;;6.80;4.57;;;;;;;;;;4803384;29;20050;-78
2023/03/22 07:02:11;;;;;;;11.68;6.82;;;;;;;;;;4828678;29;20493;-78
2023/03/22 07:04:57;;;;;;;14.23;9.45;;;;;;;;;;4822975;29;20046;-78
2023/03/22 07:07:43;;;;;;;15.25;8.65;;;;;;;;;;4805278;29;20405;-77
2023/03/22 07:10:29;;;;;;;9.65;5.65;;;;;;;;;;4806391;29;20050;-78
2023/03/22 07:13:15;;;;;;;7.22;4.75;;;;;;;;;;4806298;29;20428;-79
2023/03/22 07:16:01;;;;;;;9.00;5.75;;;;;;;;;;4816565;29;20267;-78
2023/03/22 07:18:57;;;;;;;8.35;4.63;;;;;;;;;;4799026;29;20046;-78
2023/03/22 07:21:42;;;;;;;5.57;3.58;;;;;;;;;;4821815;29;20423;-79
2023/03/22 07:24:30;;;;;;;15.85;6.85;;;;;;;;;;4807922;29;20046;-79
2023/03/22 07:27:16;;;;;;;6.82;3.40;;;;;;;;;;4803608;29;20054;-78
2023/03/22 07:30:04;;;;;;;8.70;5.60;;;;;;;;;;4801691;29;20412;-78
2023/03/22 07:32:52;;;;;;;20.67;7.13;;;;;;;;;;4802491;29;20412;-80
2023/03/22 07:35:38;;;;;;;14.45;7.50;;;;;;;;;;4819347;29;20042;-79
2023/03/22 07:38:25;;;;;;;10.73;6.45;;;;;;;;;;4796959;29;20058;-78
2023/03/22 07:41:10;;;;;;;12.60;5.68;;;;;;;;;;4812473;29;20050;-77
2023/03/22 07:44:09;;;;;;;22.20;8.55;;;;;;;;;;4820342;29;20045;-79
2023/03/22 07:46:59;;;;;;;15.90;8.18;;;;;;;;;;4814752;29;20472;-79
2023/03/22 07:49:51;;;;;;;16.90;8.88;;;;;;;;;;4802151;29;20059;-81
2023/03/22 07:52:43;;;;;;;15.85;9.77;;;;;;;;;;4802574;29;20428;-78
2023/03/22 07:55:28;;;;;;;14.55;7.40;;;;;;;;;;4810198;29;20051;-79
2023/03/22 07:58:14;;;;;;;13.93;7.78;;;;;;;;;;4810427;29;20488;-78
2023/03/22 08:01:09;;;;;;;15.48;7.63;;;;;;;;;;4827423;29;21768;-79
2023/03/22 08:04:08;;;;;;;4.75;3.63;;;;;;;;;;4807277;29;20047;-80
2023/03/22 08:07:12;;;;;;;9.48;5.75;;;;;;;;;;4818426;29;20045;-78
2023/03/22 08:09:59;;;;;;;8.60;5.22;;;;;;;;;;4807408;29;20055;-78
2023/03/22 08:12:45;;;;;;;5.55;4.35;;;;;;;;;;4813139;29;20059;-78
2023/03/22 08:15:42;;;;;;;15.38;9.45;;;;;;;;;;4824846;29;20440;-79
2023/03/22 08:18:27;;;;;;;12.85;7.20;;;;;;;;;;4805648;29;20047;-78
2023/03/22 08:21:12;;;;;;;10.90;6.22;;;;;;;;;;4814887;29;20046;-79
2023/03/22 08:23:58;;;;;;;6.53;4.63;;;;;;;;;;4805983;29;20050;-78
2023/03/22 08:26:44;;;;;;;15.30;6.43;;;;;;;;;;4829186;29;20059;-79
2023/03/22 08:29:36;;;;;;;11.00;6.82;;;;;;;;;;4804711;29;20058;-78
2023/03/22 08:32:22;;;;;;;7.95;4.53;;;;;;;;;;4805452;29;20047;-77
2023/03/22 08:35:08;;;;;;;10.10;6.18;;;;;;;;;;4835157;29;20042;-78
2023/03/22 08:37:54;;;;;;;11.18;6.47;;;;;;;;;;4805313;29;20046;-79
2023/03/22 08:40:41;;;;;;;6.10;2.83;;;;;;;;;;4805662;29;20047;-78
2023/03/22 08:43:26;;;;;;;5.60;2.80;;;;;;;;;;4813733;29;20469;-78
2023/03/22 08:46:11;;;;;;;5.68;3.20;;;;;;;;;;4814227;29;20050;-80
2023/03/22 08:48:59;;;;;;;4.53;2.92;;;;;;;;;;4807620;29;20050;-80
2023/03/22 08:51:50;;;;;;;3.70;2.45;;;;;;;;;;4805476;29;20051;-77
2023/03/22 08:54:58;;;;;;;5.30;2.97;;;;;;;;;;4796244;29;20054;-80
2023/03/22 08:58:10;;;;;;;6.30;2.90;;;;;;;;;;4816825;29;20058;-80
2023/03/22 09:01:34;;;;;;;4.65;2.53;;;;;;;;;;4756671;30;20048;-80
2023/03/22 09:04:22;;;;;;;2.67;1.75;;;;;;;;;;4763949;30;20056;-79
2023/03/22 09:07:07;;;;;;;4.75;3.25;;;;;;;;;;4806015;29;20042;-79
2023/03/22 09:09:53;;;;;;;4.82;3.38;;;;;;;;;;4805063;29;20505;-79
2023/03/22 09:12:39;;;;;;;7.40;3.75;;;;;;;;;;4829332;29;20046;-78
2023/03/22 09:15:24;;;;;;;9.02;3.28;;;;;;;;;;4805116;29;20047;-80
2023/03/22 09:18:27;;;;;;;7.90;3.88;;;;;;;;;;4804272;29;20054;-78
2023/03/22 09:21:16;;;;;;;5.93;3.80;;;;;;;;;;4804382;29;20051;-80
2023/03/22 09:24:12;;;;;;;8.05;3.60;;;;;;;;;;4827698;29;20042;-79
2023/03/22 09:27:06;;;;;;;6.88;3.53;;;;;;;;;;4805243;29;20498;-79
2023/03/22 09:29:52;;;;;;;3.40;2.13;;;;;;;;;;4805133;29;20046;-78
2023/03/22 09:32:37;;;;;;;5.22;2.78;;;;;;;;;;4816050;29;20047;-80
2023/03/22 09:35:24;;;;;;;4.72;2.92;;;;;;;;;;4821937;29;20054;-81
2023/03/22 09:38:15;;;;;;;2.97;1.92;;;;;;;;;;4804452;29;20051;-81
2023/03/22 09:41:06;;;;;;;6.10;3.05;;;;;;;;;;4822976;29;20053;-80
2023/03/22 09:43:58;;;;;;;3.67;2.20;;;;;;;;;;4804736;29;20125;-79
2023/03/22 09:46:48;;;;;;;2.33;1.63;;;;;;;;;;4801379;29;20054;-80
2023/03/22 09:49:41;;;;;;;9.88;2.70;;;;;;;;;;4811912;29;20050;-76
2023/03/22 09:52:26;;;;;;;7.45;2.38;;;;;;;;;;4812052;29;20408;-81
2023/03/22 09:55:27;;;;;;;4.72;2.83;;;;;;;;;;4811288;29;20050;-80
2023/03/22 09:58:31;;;;;;;2.90;1.58;;;;;;;;;;4813789;29;20047;-79
2023/03/22 10:01:39;;;;;;;3.90;2.47;;;;;;;;;;4811993;29;20043;-79
2023/03/22 10:04:37;;;;;;;7.40;2.85;;;;;;;;;;4812116;29;20271;-80
2023/03/22 10:07:38;;;;;;;5.68;2.17;;;;;;;;;;4811403;29;20488;-80
2023/03/22 10:10:24;;;;;;;4.72;2.35;;;;;;;;;;4811358;29;20067;-79
2023/03/22 10:13:24;;;;;;;5.63;3.50;;;;;;;;;;4810570;29;20042;-78
2023/03/22 10:16:12;;;;;;;5.20;3.05;;;;;;;;;;4813432;29;20042;-80
2023/03/22 10:19:16;;;;;;;5.50;3.28;;;;;;;;;;4811657;29;20047;-79
2023/03/22 10:22:03;;;;;;;3.28;2.17;;;;;;;;;;4811202;29;20067;-79
2023/03/22 10:24:51;;;;;;;4.15;2.15;;;;;;;;;;4799649;29;20043;-81
2023/03/22 10:27:36;;;;;;;3.20;1.98;;;;;;;;;;4811712;29;20059;-79
2023/03/22 10:30:25;;;;;;;7.07;2.25;;;;;;;;;;4811670;29;20046;-82
2023/03/22 10:33:22;;;;;;;2.38;1.80;;;;;;;;;;4811343;29;20046;-81
2023/03/22 10:36:12;;;;;;;5.15;2.60;;;;;;;;;;4811317;29;20401;-81
2023/03/22 10:39:03;;;;;;;5.53;2.25;;;;;;;;;;4816420;29;20047;-80
2023/03/22 10:41:49;;;;;;;5.22;2.30;;;;;;;;;;4809410;29;20712;-79
2023/03/22 10:44:44;;;;;;;8.23;3.28;;;;;;;;;;4804726;29;20050;-80
2023/03/22 10:47:37;;;;;;;3.78;2.42;;;;;;;;;;4822186;29;20053;-79
2023/03/22 10:50:30;;;;;;;4.90;3.13;;;;;;;;;;4810794;29;20043;-79
2023/03/22 10:53:27;;;;;;;2.65;1.60;;;;;;;;;;4809045;29;20433;-78
2023/03/22 10:56:17;;;;;;;8.55;3.30;;;;;;;;;;4827669;29;20042;-77
2023/03/22 10:59:04;;;;;;;3.97;2.47;;;;;;;;;;4812659;29;20412;-79
2023/03/22 11:01:50;;;;;;;4.57;2.38;;;;;;;;;;4810433;29;20066;-79
2023/03/22 11:04:36;;;;;;;6.63;2.50;;;;;;;;;;4809817;29;20063;-80
2023/03/22 11:07:28;;;;;;;7.18;2.58;;;;;;;;;;4810768;29;20034;-77
2023/03/22 11:10:33;;;;;;;4.97;2.00;;;;;;;;;;4810164;29;20051;-78
2023/03/22 11:13:23;;;;;;;3.90;1.90;;;;;;;;;;4820174;29;20050;-77
2023/03/22 11:16:08;;;;;;;6.47;2.28;;;;;;;;;;4810385;29;20050;-78
2023/03/22 11:18:56;;;;;;;3.33;2.08;;;;;;;;;;4828038;29;20053;-78
2023/03/22 11:21:42;;;;;;;2.53;1.95;;;;;;;;;;4807761;29;20050;-78
2023/03/22 11:24:30;;;;;;;5.30;2.03;;;;;;;;;;4809970;29;20046;-77
2023/03/22 11:27:31;;;;;;;8.75;2.42;;;;;;;;;;4810138;29;20054;-78
2023/03/22 11:30:21;;;;;;;6.97;2.53;;;;;;;;;;4827245;29;20042;-79
2023/03/22 11:33:07;;;;;;;2.78;1.58;;;;;;;;;;4827310;29;20057;-79
2023/03/22 11:35:58;;;;;;;4.43;2.20;;;;;;;;;;4827740;29;20054;-78
2023/03/22 11:38:44;;;;;;;3.47;1.92;;;;;;;;;;4810347;29;20484;-78
2023/03/22 11:41:33;;;;;;;5.93;2.13;;;;;;;;;;4803278;29;20047;-78
2023/03/22 11:44:21;;;;;;;4.32;2.20;;;;;;;;;;4814186;29;20055;-78
2023/03/22 11:47:07;;;;;;;2.40;1.73;;;;;;;;;;4821004;29;20432;-80
2023/03/22 11:49:55;;;;;;;3.92;2.40;;;;;;;;;;4813869;29;20077;-82
2023/03/22 11:52:46;;;;;;;5.57;2.13;;;;;;;;;;4792992;29;20046;-81
2023/03/22 11:55:35;;;;;;;3.63;2.50;;;;;;;;;;4806124;29;20058;-79
2023/03/22 11:58:28;;;;;;;4.30;2.60;;;;;;;;;;4818546;29;20042;-78
2023/03/22 12:01:48;;;;;;;4.70;2.05;;;;;;;;;;4801240;29;20047;-79
2023/03/22 12:04:41;;;;;;;2.78;1.90;;;;;;;;;;4827930;29;20404;-79
2023/03/22 12:07:28;;;;;;;2.55;1.60;;;;;;;;;;4816521;29;20042;-78
2023/03/22 12:10:25;;;;;;;3.50;1.85;;;;;;;;;;4806994;29;20046;-78
2023/03/22 12:13:27;;;;;;;4.85;2.40;;;;;;;;;;4814501;29;20054;-79
2023/03/22 12:16:16;;;;;;;1.23;1.08;;;;;;;;;;4813089;29;20050;-79
2023/03/22 12:19:29;;;;;;;5.85;1.77;;;;;;;;;;4815667;29;20042;-79
2023/03/22 12:22:19;;;;;;;2.45;1.80;;;;;;;;;;4812898;29;20055;-80
2023/03/22 12:25:18;;;;;;;7.15;2.50;;;;;;;;;;4813052;29;20055;-79
2023/03/22 12:28:15;;;;;;;2.33;1.60;;;;;;;;;;4824750;29;20042;-78
2023/03/22 12:31:03;;;;;;;3.33;1.60;;;;;;;;;;4813388;29;20051;-78
2023/03/22 12:33:52;;;;;;;2.40;1.80;;;;;;;;;;4812617;29;20035;-80
2023/03/22 12:36:45;;;;;;;2.38;1.75;;;;;;;;;;4818309;29;20050;-78
2023/03/22 12:39:38;;;;;;;3.40;2.00;;;;;;;;;;4820031;29;20058;-81
2023/03/22 12:42:38;;;;;;;2.67;1.85;;;;;;;;;;4829815;29;20062;-81
2023/03/22 12:45:27;;;;;;;5.47;2.30;;;;;;;;;;4822851;29;20047;-80
2023/03/22 12:48:19;;;;;;;2.45;1.58;;;;;;;;;;4812687;29;20062;-79
2023/03/22 12:51:07;;;;;;;3.75;1.88;;;;;;;;;;4817245;29;20484;-79
2023/03/22 12:53:56;;;;;;;2.88;2.22;;;;;;;;;;4798775;29;20413;-79
2023/03/22 12:56:43;;;;;;;4.65;2.45;;;;;;;;;;4827757;29;20050;-80
2023/03/22 12:59:30;;;;;;;4.03;2.25;;;;;;;;;;4830958;29;20046;-79
2023/03/22 13:02:19;;;;;;;4.13;2.40;;;;;;;;;;4803913;29;20420;-76
2023/03/22 13:05:08;;;;;;;5.75;2.40;;;;;;;;;;4811952;29;20050;-77
2023/03/22 13:07:57;;;;;;;3.78;2.30;;;;;;;;;;4812332;29;20043;-77
2023/03/22 13:10:58;;;;;;;3.60;2.28;;;;;;;;;;4812784;29;20065;-81
2023/03/22 13:13:45;;;;;;;3.25;1.88;;;;;;;;;;4813411;29;20054;-79
2023/03/22 13:16:47;;;;;;;6.82;2.17;;;;;;;;;;4812251;29;20062;-80
2023/03/22 13:19:35;;;;;;;4.88;2.30;;;;;;;;;;4812088;29;20046;-79
2023/03/22 13:22:27;;;;;;;3.10;2.17;;;;;;;;;;4829257;29;20041;-79
2023/03/22 13:25:17;;;;;;;2.97;2.20;;;;;;;;;;4829578;29;20054;-78
2023/03/22 13:28:25;;;;;;;3.90;1.95;;;;;;;;;;4798638;29;20054;-77
2023/03/22 13:31:32;;;;;;;6.47;2.85;;;;;;;;;;4811807;29;20493;-79
2023/03/22 13:34:20;;;;;;;4.18;2.15;;;;;;;;;;4813915;29;20046;-79
2023/03/22 13:37:20;;;;;;;8.07;3.10;;;;;;;;;;4804088;29;20054;-80
2023/03/22 13:40:28;;;;;;;5.07;2.15;;;;;;;;;;4816756;29;20059;-78
2023/03/22 13:43:29;;;;;;;2.38;2.03;;;;;;;;;;4820202;29;20102;-78
2023/03/22 13:46:16;;;;;;;4.38;2.60;;;;;;;;;;4812995;29;20062;-79
2023/03/22 13:49:01;;;;;;;5.82;2.30;;;;;;;;;;4804239;29;20054;-80
2023/03/22 13:51:48;;;;;;;4.97;2.83;;;;;;;;;;4827831;29;20376;-79
2023/03/22 13:54:41;;;;;;;7.40;5.07;;;;;;;;;;4830185;29;20050;-78
2023/03/22 13:57:45;;;;;;;4.10;2.60;;;;;;;;;;4805292;29;20441;-79
2023/03/22 14:00:30;;;;;;;3.53;2.10;;;;;;;;;;4830511;29;20681;-77
2023/03/22 14:03:41;;;;;;;4.03;2.13;;;;;;;;;;4830664;29;20054;-79
2023/03/22 14:06:32;;;;;;;5.88;2.20;;;;;;;;;;4836287;29;20042;-80
2023/03/22 14:09:38;;;;;;;2.70;2.17;;;;;;;;;;4805976;29;20046;-80
2023/03/22 14:12:35;;;;;;;6.15;2.10;;;;;;;;;;4813250;29;20066;-79
2023/03/22 14:15:23;;;;;;;3.10;1.48;;;;;;;;;;4799865;29;20054;-80
2023/03/22 14:18:20;;;;;;;7.00;2.20;;;;;;;;;;4799216;29;20050;-81
2023/03/22 14:21:10;;;;;;;5.18;3.13;;;;;;;;;;4830181;29;20054;-80
2023/03/22 14:23:57;;;;;;;8.75;3.15;;;;;;;;;;4800091;29;20054;-80
2023/03/22 14:26:51;;;;;;;4.60;2.20;;;;;;;;;;4829914;29;20058;-80
2023/03/22 14:29:42;;;;;;;4.28;2.67;;;;;;;;;;4830224;29;20049;-79
2023/03/22 14:32:28;;;;;;;9.35;3.17;;;;;;;;;;4803944;29;20404;-80
2023/03/22 14:35:32;;;;;;;3.97;1.88;;;;;;;;;;4830125;29;20054;-80
2023/03/22 14:38:21;;;;;;;1.83;1.58;;;;;;;;;;4799567;29;20416;-80
2023/03/22 14:41:14;;;;;;;3.45;1.80;;;;;;;;;;4813094;29;20404;-79
2023/03/22 14:44:00;;;;;;;10.32;2.42;;;;;;;;;;4804722;29;20062;-78
2023/03/22 14:46:45;;;;;;;5.25;2.10;;;;;;;;;;4799024;29;20062;-79
2023/03/22 14:49:38;;;;;;;4.63;2.40;;;;;;;;;;4812840;29;20054;-78
2023/03/22 14:52:26;;;;;;;5.32;2.40;;;;;;;;;;4812897;29;20638;-78
2023/03/22 14:55:21;;;;;;;6.22;3.00;;;;;;;;;;4812595;29;20408;-80
2023/03/22 14:58:13;;;;;;;7.70;3.58;;;;;;;;;;4805260;29;20050;-80
2023/03/22 15:01:04;;;;;;;5.00;3.20;;;;;;;;;;4817302;29;20492;-80
2023/03/22 15:03:56;;;;;;;3.47;2.35;;;;;;;;;;4798892;29;20055;-79
2023/03/22 15:06:43;;;;;;;5.10;2.25;;;;;;;;;;4798859;29;20405;-77
2023/03/22 15:09:28;;;;;;;5.05;2.42;;;;;;;;;;4804236;29;20047;-80
2023/03/22 15:12:16;;;;;;;7.68;4.00;;;;;;;;;;4812361;29;20509;-80
2023/03/22 15:15:01;;;;;;;6.20;3.10;;;;;;;;;;4812510;29;20038;-80
2023/03/22 15:17:48;;;;;;;5.47;3.65;;;;;;;;;;4812102;29;20062;-79
2023/03/22 15:20:35;;;;;;;8.38;4.80;;;;;;;;;;4823681;29;20043;-80
2023/03/22 15:23:35;;;;;;;9.35;5.22;;;;;;;;;;4805214;29;20054;-79
2023/03/22 15:26:25;;;;;;;7.50;4.03;;;;;;;;;;4812320;29;20046;-80
2023/03/22 15:29:12;;;;;;;9.68;3.88;;;;;;;;;;4823583;29;20055;-79
2023/03/22 15:31:58;;;;;;;5.68;3.30;;;;;;;;;;4804298;29;20050;-79
2023/03/22 15:34:44;;;;;;;4.53;2.80;;;;;;;;;;4804188;29;20043;-78
2023/03/22 15:37:33;;;;;;;5.00;2.88;;;;;;;;;;4812605;29;20043;-79
2023/03/22 15:40:42;;;;;;;4.72;2.58;;;;;;;;;;4817983;29;20047;-79
2023/03/22 15:43:34;;;;;;;5.22;2.90;;;;;;;;;;4811330;29;20054;-79
2023/03/22 15:46:20;;;;;;;11.05;6.25;;;;;;;;;;4814368;29;20062;-80
2023/03/22 15:49:27;;;;;;;9.48;2.95;;;;;;;;;;4814494;29;20042;-80
2023/03/22 15:52:27;;;;;;;4.32;2.60;;;;;;;;;;4798342;29;20055;-78
2023/03/22 15:55:16;;;;;;;12.68;3.25;;;;;;;;;;4812470;29;20046;-80
2023/03/22 15:58:03;;;;;;;4.75;3.30;;;;;;;;;;4820319;29;20476;-80
2023/03/22 16:00:49;;;;;;;5.78;2.90;;;;;;;;;;4828556;29;20053;-79
2023/03/22 16:03:43;;;;;;;6.78;3.88;;;;;;;;;;4803510;29;20051;-82
2023/03/22 16:06:28;;;;;;;7.50;4.07;;;;;;;;;;4829151;29;20034;-79
2023/03/22 16:09:15;;;;;;;9.38;5.72;;;;;;;;;;4828798;29;20408;-79
2023/03/22 16:12:01;;;;;;;16.55;6.85;;;;;;;;;;4828673;29;20050;-80
2023/03/22 16:14:47;;;;;;;17.15;8.43;;;;;;;;;;4811937;29;20046;-81
2023/03/22 16:17:33;;;;;;;14.70;7.60;;;;;;;;;;4803745;29;20054;-80
2023/03/22 16:20:19;;;;;;;13.13;6.40;;;;;;;;;;4804291;29;20497;-78
2023/03/22 16:23:11;;;;;;;9.43;5.60;;;;;;;;;;4811100;29;20405;-79
2023/03/22 16:25:56;;;;;;;19.48;9.93;;;;;;;;;;4804025;29;20043;-79
2023/03/22 16:28:42;;;;;;;24.95;12.05;;;;;;;;;;4829403;29;20054;-78
2023/03/22 16:31:27;;;;;;;39.95;15.38;;;;;;;;;;4831840;29;20042;-78
2023/03/22 16:34:12;;;;;;;101.40;45.22;;;;;;;;;;4814606;29;20051;-79
2023/03/22 16:36:57;;;;;;;81.00;36.35;;;;;;;;;;4817886;29;20050;-80
2023/03/22 16:39:44;;;;;;;42.65;21.92;;;;;;;;;;4814694;29;20043;-79
2023/03/22 16:42:29;;;;;;;18.50;10.07;;;;;;;;;;4814735;29;20499;-80
2023/03/22 16:45:21;;;;;;;27.85;14.10;;;;;;;;;;4814432;29;20400;-80
2023/03/22 16:48:06;;;;;;;31.95;19.23;;;;;;;;;;4801422;29;20441;-81
2023/03/22 16:50:51;;;;;;;36.53;17.23;;;;;;;;;;4815053;29;20046;-80
2023/03/22 16:53:36;;;;;;;39.70;18.35;;;;;;;;;;4814584;29;20487;-80
2023/03/22 16:56:23;;;;;;;39.83;19.40;;;;;;;;;;4814680;29;20046;-79